Time;durP1;ratioP1;P1;durP2;ratioP2;P2;SDS_P1;SDS_P2;PMS_P1;PMS_P2;Temp;Humidity;BMP_temperature;BMP_pressure;BME280_temperature;BME280_humidity;BME280_pressure;Samples;Min_cycle;Max_cycle;Signal;HPM_P1;HPM_P2
2022/06/19 00:03:46;;;;;;;5.10;2.10;;;25.60;54.10;;;;;;220167;1270;23040;-55
2022/06/19 00:08:51;;;;;;;3.40;1.90;;;25.70;54.10;;;;;;220096;1270;22573;-55
2022/06/19 00:13:53;;;;;;;3.60;1.90;;;25.70;54.20;;;;;;220241;1270;22547;-57
2022/06/19 00:18:55;;;;;;;2.70;1.60;;;25.60;54.10;;;;;;220131;1270;23954;-53
2022/06/19 00:23:58;;;;;;;2.20;1.60;;;25.60;54.50;;;;;;219915;1272;25279;-54
2022/06/19 00:29:01;;;;;;;2.20;1.60;;;25.60;54.10;;;;;;220094;1273;25254;-54
2022/06/19 00:34:03;;;;;;;5.00;2.10;;;25.60;54.20;;;;;;220066;1273;24788;-56
2022/06/19 00:39:06;;;;;;;4.50;1.80;;;25.60;54.20;;;;;;219932;1273;22563;-55
2022/06/19 00:44:10;;;;;;;3.10;1.80;;;25.60;54.20;;;;;;219996;1271;22657;-56
2022/06/19 00:49:19;;;;;;;4.10;2.10;;;25.60;54.30;;;;;;219847;1273;26700;-52
2022/06/19 00:54:31;;;;;;;3.60;2.00;;;25.60;54.60;;;;;;220047;1272;22824;-52
2022/06/19 00:59:44;;;;;;;3.90;1.80;;;25.60;54.20;;;;;;219793;1271;22704;-55
2022/06/19 01:04:52;;;;;;;5.30;1.80;;;25.60;54.30;;;;;;220027;1271;22710;-54
2022/06/19 01:09:55;;;;;;;3.60;1.90;;;25.50;54.30;;;;;;219955;1273;23014;-52
2022/06/19 01:15:02;;;;;;;2.00;1.60;;;25.60;54.30;;;;;;219927;1270;24229;-52
2022/06/19 01:20:09;;;;;;;2.90;2.00;;;25.50;54.20;;;;;;219623;1271;364244;-56
2022/06/19 01:25:16;;;;;;;2.10;1.60;;;25.50;54.20;;;;;;219978;1270;22720;-53
2022/06/19 01:30:19;;;;;;;2.10;1.50;;;25.50;54.20;;;;;;220101;1271;24250;-55
2022/06/19 01:35:28;;;;;;;3.10;2.00;;;25.50;54.20;;;;;;220066;1270;22606;-56
2022/06/19 01:40:39;;;;;;;6.80;2.10;;;25.50;54.20;;;;;;219940;1270;25281;-54
2022/06/19 01:45:52;;;;;;;3.20;1.70;;;25.50;54.20;;;;;;220062;1270;24795;-55
2022/06/19 01:51:03;;;;;;;2.50;1.70;;;25.50;54.30;;;;;;219997;1270;22550;-55
2022/06/19 01:56:08;;;;;;;3.00;1.80;;;25.50;54.30;;;;;;220140;1270;24216;-55
2022/06/19 02:01:12;;;;;;;3.60;2.10;;;25.50;54.30;;;;;;220100;1271;25264;-53
2022/06/19 02:06:22;;;;;;;3.20;2.00;;;25.50;54.40;;;;;;220093;1271;22560;-54
2022/06/19 02:11:26;;;;;;;3.80;1.90;;;25.50;54.40;;;;;;220121;1270;25445;-53
2022/06/19 02:16:29;;;;;;;2.40;1.70;;;25.50;54.40;;;;;;220200;1270;22572;-55
2022/06/19 02:21:37;;;;;;;5.40;2.50;;;25.50;54.50;;;;;;220218;1270;22846;-54
2022/06/19 02:26:41;;;;;;;3.50;2.00;;;25.50;54.40;;;;;;220126;1270;22540;-55
2022/06/19 02:31:48;;;;;;;4.50;2.50;;;25.50;54.60;;;;;;220121;1270;22528;-55
2022/06/19 02:37:00;;;;;;;4.80;2.30;;;25.50;54.50;;;;;;220073;1272;24260;-53
2022/06/19 02:42:34;;;;;;;3.10;1.90;;;25.40;54.40;;;;;;220048;1271;22569;-54
2022/06/19 02:47:39;;;;;;;6.70;2.40;;;25.40;54.40;;;;;;220120;1272;22583;-55
2022/06/19 02:52:42;;;;;;;3.20;2.10;;;25.40;54.50;;;;;;219994;1270;22555;-55
2022/06/19 02:57:46;;;;;;;3.30;2.10;;;25.40;54.50;;;;;;219783;1271;24421;-53
2022/06/19 03:02:51;;;;;;;2.20;1.80;;;25.40;54.80;;;;;;220119;1271;22550;-55
2022/06/19 03:08:01;;;;;;;4.10;2.30;;;25.40;54.50;;;;;;220103;1270;22570;-53
2022/06/19 03:13:12;;;;;;;5.20;2.30;;;25.40;54.50;;;;;;220143;1270;24245;-54
2022/06/19 03:18:15;;;;;;;2.80;1.90;;;25.40;54.50;;;;;;220073;1271;24343;-54
2022/06/19 03:23:17;;;;;;;4.50;2.20;;;25.40;54.50;;;;;;220101;1271;25405;-55
2022/06/19 03:28:19;;;;;;;2.10;1.60;;;25.40;54.90;;;;;;219662;1271;22977;-55
2022/06/19 03:33:22;;;;;;;1.90;1.50;;;25.40;54.60;;;;;;219613;1271;22579;-54
2022/06/19 03:38:25;;;;;;;4.70;2.30;;;25.40;54.60;;;;;;219835;1272;24243;-58
2022/06/19 03:43:27;;;;;;;5.70;2.50;;;25.40;54.60;;;;;;219825;1271;24401;-52
2022/06/19 03:48:30;;;;;;;2.70;1.90;;;25.40;54.60;;;;;;220001;1271;24804;-53
2022/06/19 03:53:32;;;;;;;3.20;1.90;;;25.40;54.60;;;;;;219648;1271;24401;-54
2022/06/19 03:58:47;;;;;;;3.50;2.10;;;25.40;54.90;;;;;;219591;1271;22568;-56
2022/06/19 04:03:51;;;;;;;2.30;1.60;;;25.40;54.60;;;;;;219901;1271;22553;-54
2022/06/19 04:08:55;;;;;;;6.00;2.50;;;25.40;54.60;;;;;;219933;1271;24448;-55
2022/06/19 04:13:57;;;;;;;11.80;3.00;;;25.40;54.60;;;;;;219985;1271;22764;-57
2022/06/19 04:19:07;;;;;;;6.10;2.20;;;25.40;54.60;;;;;;219605;1272;24436;-54
2022/06/19 04:24:20;;;;;;;6.80;2.50;;;25.40;54.50;;;;;;220034;1271;23046;-54
2022/06/19 04:29:25;;;;;;;2.90;1.70;;;25.40;54.50;;;;;;220196;1271;22560;-57
2022/06/19 04:34:31;;;;;;;8.30;2.80;;;25.40;54.50;;;;;;219973;1271;22560;-53
2022/06/19 04:39:34;;;;;;;3.10;2.00;;;25.40;54.50;;;;;;219714;1271;24221;-55
2022/06/19 04:44:36;;;;;;;4.40;2.40;;;25.40;54.50;;;;;;219851;1271;24220;-55
2022/06/19 04:49:38;;;;;;;2.80;1.80;;;25.40;54.40;;;;;;219933;1271;24975;-55
2022/06/19 04:54:42;;;;;;;3.20;2.00;;;25.40;54.40;;;;;;219920;1271;22552;-54
2022/06/19 04:59:44;;;;;;;4.50;2.10;;;25.40;54.40;;;;;;219808;1271;25438;-52
2022/06/19 05:04:49;;;;;;;4.70;2.30;;;25.40;54.70;;;;;;219980;1271;23985;-53
2022/06/19 05:09:52;;;;;;;4.40;2.00;;;25.50;54.70;;;;;;220090;1272;22950;-54
2022/06/19 05:14:55;;;;;;;4.60;2.20;;;25.50;54.30;;;;;;220155;1270;22541;-55
2022/06/19 05:20:01;;;;;;;3.20;1.80;;;25.50;54.20;;;;;;220155;1271;23961;-53
2022/06/19 05:25:09;;;;;;;2.20;1.60;;;25.50;54.50;;;;;;220070;1271;22546;-57
2022/06/19 05:30:19;;;;;;;3.30;2.00;;;25.50;54.20;;;;;;220053;1271;26526;-53
2022/06/19 05:35:22;;;;;;;5.30;2.40;;;25.50;54.10;;;;;;220036;1271;24323;-58
2022/06/19 05:40:26;;;;;;;2.80;2.00;;;25.50;54.20;;;;;;219782;1272;24788;-57
2022/06/19 05:45:28;;;;;;;4.80;2.40;;;25.50;54.10;;;;;;219729;1271;24230;-60
2022/06/19 05:50:31;;;;;;;2.40;1.70;;;25.50;54.10;;;;;;219948;1275;24294;-54
2022/06/19 05:55:33;;;;;;;3.30;1.90;;;25.50;54.10;;;;;;219976;1271;24797;-55
2022/06/19 06:00:36;;;;;;;3.20;1.90;;;25.60;54.10;;;;;;220061;1273;24310;-50
2022/06/19 06:05:39;;;;;;;2.60;2.00;;;25.60;54.20;;;;;;219955;1271;22528;-55
2022/06/19 06:10:42;;;;;;;3.00;2.10;;;25.60;54.20;;;;;;219700;1272;22548;-53
2022/06/19 06:15:49;;;;;;;3.90;2.40;;;25.60;54.10;;;;;;219846;1271;22903;-55
2022/06/19 06:21:00;;;;;;;3.20;2.10;;;25.60;54.10;;;;;;219729;1271;22811;-56
2022/06/19 06:26:17;;;;;;;3.60;2.40;;;25.60;54.50;;;;;;219987;1271;22577;-53
2022/06/19 06:31:26;;;;;;;4.00;2.30;;;25.60;54.10;;;;;;220145;1271;24394;-56
2022/06/19 06:36:32;;;;;;;5.60;2.50;;;25.70;54.20;;;;;;219967;1271;24556;-57
2022/06/19 06:41:35;;;;;;;3.20;1.80;;;25.70;54.10;;;;;;219847;1271;24062;-55
2022/06/19 06:46:48;;;;;;;4.30;2.20;;;25.70;54.40;;;;;;219977;1271;25560;-56
2022/06/19 06:52:02;;;;;;;4.00;2.10;;;25.70;54.00;;;;;;219738;1271;22570;-55
2022/06/19 06:57:14;;;;;;;10.50;3.00;;;25.70;54.00;;;;;;219815;1271;22672;-53
2022/06/19 07:02:42;;;;;;;2.70;2.00;;;25.70;53.90;;;;;;219767;1271;25612;-53
2022/06/19 07:07:53;;;;;;;3.40;1.80;;;25.70;54.20;;;;;;219753;1274;22867;-54
2022/06/19 07:13:06;;;;;;;4.70;2.50;;;25.80;53.90;;;;;;220043;1271;24421;-56
2022/06/19 07:18:09;;;;;;;4.20;2.20;;;25.80;53.80;;;;;;219972;1271;22695;-56
2022/06/19 07:23:11;;;;;;;8.10;2.70;;;25.80;53.80;;;;;;220076;1271;24341;-56
2022/06/19 07:28:15;;;;;;;2.60;1.90;;;25.80;53.80;;;;;;219744;1271;22664;-55
2022/06/19 07:33:20;;;;;;;3.60;2.10;;;25.80;53.80;;;;;;219932;1270;25374;-55
2022/06/19 07:38:23;;;;;;;2.60;1.90;;;25.90;53.80;;;;;;219751;1271;22550;-57
2022/06/19 07:43:26;;;;;;;2.80;2.10;;;25.90;53.80;;;;;;219564;1271;22728;-55
2022/06/19 07:54:26;;;;;;;4.90;2.20;;;25.90;53.70;;;;;;219369;1271;22756;-56
2022/06/19 07:59:34;;;;;;;3.90;2.20;;;26.00;53.70;;;;;;219879;1271;22572;-56
2022/06/19 08:04:36;;;;;;;4.00;2.00;;;26.00;53.70;;;;;;219950;1270;24089;-56
2022/06/19 08:09:47;;;;;;;2.70;2.20;;;26.00;53.70;;;;;;220012;1270;24296;-56
2022/06/19 08:14:53;;;;;;;2.40;1.80;;;26.00;53.60;;;;;;220071;1270;22624;-56
2022/06/19 08:19:57;;;;;;;3.70;2.30;;;26.00;53.60;;;;;;219922;1272;22585;-55
2022/06/19 08:25:04;;;;;;;2.20;1.90;;;26.00;53.60;;;;;;220134;1271;26673;-55
2022/06/19 08:30:13;;;;;;;3.60;2.30;;;26.00;53.80;;;;;;220280;1270;24301;-49
2022/06/19 08:35:23;;;;;;;3.90;2.40;;;26.00;54.00;;;;;;220022;1271;22659;-53
2022/06/19 08:40:53;;;;;;;2.70;2.00;;;26.10;53.50;;;;;;220036;1271;22578;-51
2022/06/19 08:46:23;;;;;;;3.70;2.10;;;26.10;53.40;;;;;;220049;1271;25328;-50
2022/06/19 08:51:38;;;;;;;3.90;2.20;;;26.10;53.30;;;;;;219724;1271;25551;-52
2022/06/19 08:57:31;;;;;;;3.40;2.30;;;26.20;53.30;;;;;;219580;1271;23962;-51
2022/06/19 09:02:51;;;;;;;3.20;2.20;;;26.20;53.60;;;;;;219209;1271;22695;-54
2022/06/19 09:08:12;;;;;;;2.50;1.80;;;26.20;53.20;;;;;;219629;1271;22706;-50
2022/06/19 09:13:32;;;;;;;2.40;2.00;;;26.30;53.30;;;;;;219634;1271;24286;-48
2022/06/19 09:18:42;;;;;;;4.00;2.10;;;26.20;53.10;;;;;;219943;1270;22541;-52
2022/06/19 09:23:54;;;;;;;2.50;2.00;;;26.30;53.10;;;;;;219711;1271;22546;-47
2022/06/19 09:29:22;;;;;;;2.90;2.00;;;26.30;53.00;;;;;;219825;1272;24308;-51
2022/06/19 09:34:56;;;;;;;2.80;2.10;;;26.30;53.10;;;;;;219913;1270;23049;-48
2022/06/19 09:40:35;;;;;;;4.20;2.40;;;26.40;53.00;;;;;;219828;1271;25584;-51
2022/06/19 09:45:56;;;;;;;5.40;2.80;;;26.40;53.50;;;;;;219981;1271;22700;-49
2022/06/19 09:51:12;;;;;;;4.00;2.30;;;26.40;52.90;;;;;;219862;1271;25276;-50
2022/06/19 09:56:50;;;;;;;3.40;2.30;;;26.40;52.80;;;;;;219804;1271;22847;-48
2022/06/19 10:02:20;;;;;;;3.60;2.20;;;26.40;52.80;;;;;;219590;1271;25273;-50
2022/06/19 10:07:40;;;;;;;4.00;2.00;;;26.50;52.70;;;;;;219669;1271;25404;-47
2022/06/19 10:13:42;;;;;;;4.70;2.50;;;26.50;52.90;;;;;;219745;1271;22826;-50
2022/06/19 10:19:03;;;;;;;5.20;2.70;;;26.50;52.30;;;;;;219712;1270;22767;-48
2022/06/19 10:24:58;;;;;;;10.70;3.00;;;26.50;52.40;;;;;;220138;1270;24232;-50
2022/06/19 10:30:28;;;;;;;4.80;2.30;;;26.60;52.40;;;;;;219287;1273;23806;-48
2022/06/19 10:35:57;;;;;;;4.40;2.30;;;26.60;52.30;;;;;;219698;1271;24242;-48
2022/06/19 10:47:41;;;;;;;6.70;2.50;;;26.70;51.90;;;;;;219943;1271;22587;-49
2022/06/19 10:53:28;;;;;;;4.60;2.40;;;26.70;52.10;;;;;;219846;1271;24771;-50
2022/06/19 10:58:31;;;;;;;3.70;2.30;;;26.70;52.20;;;;;;219849;1271;22573;-46
2022/06/19 11:09:19;;;;;;;4.50;2.30;;;26.80;52.20;;;;;;219910;1271;24234;-50
2022/06/19 11:14:38;;;;;;;8.50;2.70;;;26.80;52.10;;;;;;219969;1271;25339;-48
2022/06/19 11:19:48;;;;;;;3.40;2.20;;;26.80;52.10;;;;;;220048;1271;22553;-48
2022/06/19 11:25:13;;;;;;;7.90;2.70;;;26.80;52.00;;;;;;219765;1271;22550;-50
2022/06/19 11:30:39;;;;;;;4.40;2.50;;;26.80;52.00;;;;;;219862;1271;22579;-51
2022/06/19 11:36:12;;;;;;;8.70;3.20;;;26.80;52.00;;;;;;219977;1271;22543;-51
2022/06/19 11:41:36;;;;;;;4.20;2.50;;;26.90;52.00;;;;;;220213;1271;25313;-49
2022/06/19 11:47:24;;;;;;;6.70;2.50;;;26.90;51.90;;;;;;220082;1271;24248;-48
2022/06/19 11:52:39;;;;;;;3.60;2.10;;;26.90;51.80;;;;;;220011;1270;22714;-50
2022/06/19 11:58:01;;;;;;;3.10;2.00;;;26.90;51.60;;;;;;220227;1270;22572;-50
2022/06/19 12:03:32;;;;;;;4.00;2.50;;;26.90;51.60;;;;;;219957;1271;23222;-47
2022/06/19 12:09:12;;;;;;;7.20;3.00;;;26.90;51.70;;;;;;219945;1271;24695;-49
2022/06/19 12:14:29;;;;;;;6.20;2.50;;;26.90;51.40;;;;;;219924;1270;24702;-54
2022/06/19 12:19:57;;;;;;;6.50;2.50;;;26.90;51.30;;;;;;219983;1271;25357;-53
2022/06/19 12:25:12;;;;;;;11.00;3.20;;;27.00;51.50;;;;;;219833;1271;24180;-48
2022/06/19 12:30:41;;;;;;;3.60;2.20;;;27.00;51.50;;;;;;220154;1271;22551;-47
2022/06/19 12:35:50;;;;;;;7.50;3.10;;;27.00;51.20;;;;;;219650;1271;22714;-50
2022/06/19 12:41:02;;;;;;;5.90;2.70;;;27.00;51.80;;;;;;219992;1271;24144;-48
2022/06/19 12:46:27;;;;;;;5.90;2.80;;;27.00;51.40;;;;;;219929;1271;22677;-50
2022/06/19 12:52:11;;;;;;;5.80;2.40;;;27.00;51.90;;;;;;220023;1271;26499;-51
2022/06/19 12:58:01;;;;;;;7.50;2.80;;;27.00;51.20;;;;;;219826;1271;22560;-49
2022/06/19 13:03:32;;;;;;;4.60;2.10;;;27.00;51.20;;;;;;219640;1271;24333;-51
2022/06/19 13:08:55;;;;;;;8.50;2.70;;;27.10;51.30;;;;;;219897;1270;22968;-49
2022/06/19 13:14:08;;;;;;;5.00;2.20;;;27.00;51.30;;;;;;219878;1271;22573;-47
2022/06/19 13:19:16;;;;;;;2.90;2.20;;;27.00;51.20;;;;;;219271;1271;503206;-48
2022/06/19 13:24:44;;;;;;;4.80;2.30;;;27.00;51.70;;;;;;219973;1270;24378;-49
2022/06/19 13:30:11;;;;;;;4.40;2.40;;;27.00;51.40;;;;;;220054;1271;25558;-49
2022/06/19 13:35:32;;;;;;;7.90;2.40;;;27.00;51.30;;;;;;220017;1270;23646;-49
2022/06/19 13:40:50;;;;;;;4.20;2.80;;;27.00;51.20;;;;;;219696;1271;22557;-50
2022/06/19 13:46:19;;;;;;;3.10;2.30;;;27.00;51.30;;;;;;219840;1271;22547;-49
2022/06/19 13:51:59;;;;;;;3.30;2.30;;;27.10;51.20;;;;;;219775;1271;22537;-49
2022/06/19 13:57:20;;;;;;;5.30;2.40;;;27.00;51.70;;;;;;219613;1271;24392;-51
2022/06/19 14:02:54;;;;;;;11.30;3.30;;;27.10;51.10;;;;;;219872;1271;24293;-50
2022/06/19 14:08:28;;;;;;;3.40;2.30;;;27.10;51.30;;;;;;219782;1271;25239;-48
2022/06/19 14:13:41;;;;;;;3.60;2.10;;;27.10;51.30;;;;;;219884;1271;25285;-47
2022/06/19 14:19:18;;;;;;;6.10;2.40;;;27.10;51.30;;;;;;220047;1272;24266;-52
2022/06/19 14:24:40;;;;;;;4.40;2.10;;;27.10;51.30;;;;;;220051;1271;26525;-47
2022/06/19 14:29:56;;;;;;;4.60;2.40;;;27.10;51.70;;;;;;219901;1271;24785;-50
2022/06/19 14:35:18;;;;;;;6.30;2.50;;;27.10;51.30;;;;;;219713;1271;22678;-51
2022/06/19 14:40:26;;;;;;;4.10;2.20;;;27.10;51.30;;;;;;219958;1271;22541;-47
2022/06/19 14:46:04;;;;;;;4.20;2.30;;;27.10;51.00;;;;;;219965;1270;22582;-47
2022/06/19 14:51:38;;;;;;;10.40;3.10;;;27.10;51.20;;;;;;220020;1270;24356;-50
2022/06/19 14:56:49;;;;;;;3.50;2.30;;;27.10;51.20;;;;;;219875;1271;24104;-48
2022/06/19 15:01:59;;;;;;;12.40;3.60;;;27.10;51.40;;;;;;219834;1273;24384;-51
2022/06/19 15:07:16;;;;;;;7.40;2.50;;;27.10;51.40;;;;;;219885;1270;24295;-48
2022/06/19 15:12:30;;;;;;;4.70;2.30;;;27.10;51.40;;;;;;219893;1271;25037;-50
2022/06/19 15:17:45;;;;;;;6.70;2.50;;;27.10;51.40;;;;;;219870;1271;24417;-47
2022/06/19 15:23:34;;;;;;;4.40;2.30;;;27.10;51.20;;;;;;219995;1272;22560;-51
2022/06/19 15:28:39;;;;;;;8.90;2.70;;;27.10;51.10;;;;;;219697;1271;23247;-52
2022/06/19 15:34:28;;;;;;;5.70;2.90;;;27.10;51.30;;;;;;219915;1270;25335;-49
2022/06/19 15:39:34;;;;;;;4.40;2.40;;;27.10;51.70;;;;;;219509;1273;22566;-47
2022/06/19 15:45:03;;;;;;;9.40;2.90;;;27.10;51.40;;;;;;219879;1271;22760;-48
2022/06/19 15:50:40;;;;;;;9.80;3.10;;;27.10;51.40;;;;;;219839;1271;24266;-49
2022/06/19 15:56:03;;;;;;;6.90;2.70;;;27.10;51.40;;;;;;219980;1271;26569;-51
2022/06/19 16:01:11;;;;;;;4.70;2.30;;;27.10;51.10;;;;;;219993;1271;22740;-47
2022/06/19 16:06:19;;;;;;;4.70;2.60;;;27.10;51.00;;;;;;220047;1270;22551;-49
2022/06/19 16:11:36;;;;;;;4.50;2.20;;;27.10;51.10;;;;;;219758;1271;24814;-50
2022/06/19 16:16:51;;;;;;;8.00;3.10;;;27.10;51.20;;;;;;219796;1272;25270;-49
2022/06/19 16:22:06;;;;;;;5.20;2.30;;;27.10;51.20;;;;;;219833;1271;22595;-51
2022/06/19 16:27:18;;;;;;;6.00;2.60;;;27.10;51.10;;;;;;219884;1271;22538;-54
2022/06/19 16:32:25;;;;;;;8.00;2.90;;;27.10;51.00;;;;;;220065;1272;22570;-49
2022/06/19 16:48:10;;;;;;;4.90;2.80;;;27.10;51.00;;;;;;220139;1270;25324;-52
2022/06/19 16:53:13;;;;;;;3.80;2.30;;;27.10;51.10;;;;;;220041;1270;22566;-49
2022/06/19 16:58:24;;;;;;;5.90;2.30;;;27.10;51.20;;;;;;220057;1270;24368;-48
2022/06/19 17:03:42;;;;;;;3.20;2.10;;;27.10;51.60;;;;;;220046;1270;22538;-51
2022/06/19 17:08:51;;;;;;;5.90;2.30;;;27.10;51.50;;;;;;220085;1270;22542;-50
2022/06/19 17:14:15;;;;;;;;;;;27.10;51.30;;;;;;220135;1270;22623;-49
2022/06/19 17:19:21;;;;;;;5.90;2.30;;;27.10;51.20;;;;;;219963;1270;22554;-47
2022/06/19 17:24:45;;;;;;;2.90;2.10;;;27.10;51.60;;;;;;219987;1270;24238;-48
2022/06/19 17:30:02;;;;;;;4.00;2.10;;;27.10;51.30;;;;;;220066;1270;24208;-52
2022/06/19 17:35:45;;;;;;;8.30;2.40;;;27.10;51.40;;;;;;220071;1270;22554;-50
2022/06/19 17:41:09;;;;;;;9.80;3.40;;;27.00;51.50;;;;;;219861;1271;22780;-48
2022/06/19 17:46:28;;;;;;;5.40;2.30;;;27.10;51.60;;;;;;220007;1273;22647;-47
2022/06/19 17:51:45;;;;;;;5.80;2.70;;;27.00;51.60;;;;;;220137;1270;24023;-48
2022/06/19 17:56:53;;;;;;;3.60;2.20;;;27.00;51.60;;;;;;219984;1273;25331;-52
2022/06/19 18:02:23;;;;;;;7.40;3.00;;;27.10;51.90;;;;;;219848;1270;22651;-51
2022/06/19 18:07:33;;;;;;;3.80;2.20;;;27.00;51.60;;;;;;219905;1270;24814;-47
2022/06/19 18:12:46;;;;;;;7.80;2.60;;;27.00;51.70;;;;;;219898;1271;24302;-51
2022/06/19 18:23:14;;;;;;;4.80;2.60;;;27.00;51.80;;;;;;219841;1271;25315;-49
2022/06/19 18:28:16;;;;;;;4.10;2.30;;;27.00;51.70;;;;;;220085;1270;24805;-51
2022/06/19 18:33:22;;;;;;;3.20;2.50;;;27.00;51.80;;;;;;219685;1273;22566;-51
2022/06/19 18:38:27;;;;;;;7.50;3.10;;;27.00;51.80;;;;;;219821;1270;24666;-47
2022/06/19 18:43:30;;;;;;;5.60;2.40;;;27.00;51.80;;;;;;219946;1270;24507;-52
2022/06/19 18:48:33;;;;;;;3.50;2.40;;;27.00;52.50;;;;;;220129;1270;22698;-53
2022/06/19 18:53:36;;;;;;;4.00;2.20;;;27.00;52.00;;;;;;219933;1271;22590;-52
2022/06/19 18:58:40;;;;;;;3.60;2.30;;;27.00;52.00;;;;;;219838;1271;24329;-52
2022/06/19 19:03:45;;;;;;;3.00;2.10;;;27.00;52.10;;;;;;219780;1271;25812;-51
2022/06/19 19:08:49;;;;;;;4.00;2.40;;;26.90;52.10;;;;;;220088;1270;22699;-51
2022/06/19 19:13:56;;;;;;;4.20;2.50;;;27.00;52.20;;;;;;220281;1270;24444;-47
2022/06/19 19:18:59;;;;;;;4.40;2.40;;;26.90;52.20;;;;;;220001;1273;22547;-53
2022/06/19 19:24:01;;;;;;;10.80;3.40;;;26.90;52.80;;;;;;220042;1272;22549;-50
2022/06/19 19:29:09;;;;;;;4.80;2.40;;;26.90;52.30;;;;;;220265;1270;23155;-50
2022/06/19 19:34:15;;;;;;;5.50;2.40;;;26.90;52.30;;;;;;219899;1273;24368;-48
2022/06/19 19:39:21;;;;;;;5.50;2.50;;;26.90;52.40;;;;;;219933;1271;22553;-49
2022/06/19 19:44:26;;;;;;;3.50;2.50;;;26.90;52.40;;;;;;220132;1270;24559;-48
2022/06/19 19:49:35;;;;;;;7.60;3.00;;;26.90;52.40;;;;;;219880;1273;24293;-50
2022/06/19 19:54:47;;;;;;;5.80;2.20;;;26.90;52.40;;;;;;219926;1273;22575;-48
2022/06/19 20:00:08;;;;;;;5.30;2.70;;;26.90;52.60;;;;;;219754;1273;24108;-51
2022/06/19 20:11:05;;;;;;;4.70;2.40;;;26.90;52.80;;;;;;219796;1272;24701;-51
2022/06/19 20:16:12;;;;;;;5.70;2.80;;;26.90;52.50;;;;;;220090;1270;22559;-49
2022/06/19 20:21:58;;;;;;;3.80;2.60;;;26.80;52.50;;;;;;220001;1270;25472;-51
2022/06/19 20:27:13;;;;;;;4.70;2.50;;;26.80;52.80;;;;;;219917;1271;25444;-52
2022/06/19 20:32:35;;;;;;;3.50;2.40;;;26.90;52.10;;;;;;219838;1273;25273;-48
2022/06/19 20:38:22;;;;;;;18.00;4.00;;;26.80;52.40;;;;;;220002;1270;24314;-52
2022/06/19 20:43:50;;;;;;;6.20;2.50;;;26.80;53.10;;;;;;219960;1272;24419;-49
2022/06/19 20:49:46;;;;;;;8.80;2.80;;;26.80;52.60;;;;;;220073;1274;26609;-50
2022/06/19 20:55:32;;;;;;;7.00;2.70;;;26.80;52.20;;;;;;219811;1271;25323;-51
2022/06/19 21:00:58;;;;;;;7.50;2.80;;;26.80;53.00;;;;;;219980;1270;24084;-52
2022/06/19 21:06:34;;;;;;;10.90;3.50;;;26.80;52.20;;;;;;219734;1273;22787;-50
2022/06/19 21:12:03;;;;;;;6.20;2.60;;;26.80;52.70;;;;;;220050;1271;22604;-50
2022/06/19 21:17:26;;;;;;;3.10;2.30;;;26.80;52.80;;;;;;220079;1270;22630;-50
2022/06/19 21:23:07;;;;;;;6.50;3.00;;;26.80;53.40;;;;;;219904;1272;24302;-50
2022/06/19 21:28:18;;;;;;;4.30;2.50;;;26.80;52.90;;;;;;219935;1273;25429;-52
2022/06/19 21:33:49;;;;;;;4.00;2.20;;;26.80;52.90;;;;;;220113;1271;25189;-50
2022/06/19 21:39:03;;;;;;;5.10;2.70;;;26.80;53.00;;;;;;220346;1270;25333;-50
2022/06/19 21:44:52;;;;;;;6.50;2.60;;;26.80;53.40;;;;;;219737;1273;22554;-50
2022/06/19 21:50:19;;;;;;;4.00;2.20;;;26.80;53.10;;;;;;219961;1271;22539;-48
2022/06/19 21:55:35;;;;;;;4.70;2.50;;;26.70;53.00;;;;;;219759;1271;22627;-51
2022/06/19 22:00:50;;;;;;;3.50;2.10;;;26.70;53.10;;;;;;219727;1271;23447;-51
2022/06/19 22:06:16;;;;;;;4.10;2.40;;;26.70;53.10;;;;;;219760;1271;22678;-52
2022/06/19 22:17:03;;;;;;;4.30;2.20;;;26.70;53.20;;;;;;219776;1272;22576;-50
2022/06/19 22:22:18;;;;;;;6.10;2.70;;;26.80;53.30;;;;;;219889;1271;22547;-48
2022/06/19 22:27:30;;;;;;;3.50;2.40;;;26.70;53.20;;;;;;219941;1271;24342;-49
2022/06/19 22:32:33;;;;;;;6.40;2.50;;;26.70;53.30;;;;;;219898;1271;22541;-50
2022/06/19 22:37:38;;;;;;;5.30;2.50;;;26.70;53.30;;;;;;219824;1270;24249;-51
2022/06/19 22:42:45;;;;;;;7.60;2.70;;;26.70;53.30;;;;;;219976;1271;23944;-50
2022/06/19 22:47:50;;;;;;;5.60;2.40;;;26.70;53.70;;;;;;219999;1271;22847;-48
2022/06/19 22:52:52;;;;;;;4.80;2.20;;;26.70;53.40;;;;;;219872;1271;22903;-49
2022/06/19 22:58:03;;;;;;;8.80;2.90;;;26.70;53.40;;;;;;219856;1271;22669;-50
2022/06/19 23:03:14;;;;;;;5.10;2.50;;;26.70;53.50;;;;;;219926;1271;22585;-50
2022/06/19 23:08:28;;;;;;;7.00;2.80;;;26.60;53.50;;;;;;220263;1270;26498;-50
2022/06/19 23:13:33;;;;;;;7.00;2.60;;;26.70;53.90;;;;;;220011;1271;26637;-48
2022/06/19 23:18:45;;;;;;;7.40;2.40;;;26.60;54.20;;;;;;220053;1272;22664;-49
2022/06/19 23:23:48;;;;;;;3.10;2.30;;;26.70;53.60;;;;;;220146;1271;22592;-48
2022/06/19 23:28:54;;;;;;;3.80;2.20;;;26.70;53.60;;;;;;219883;1271;25359;-54
2022/06/19 23:33:57;;;;;;;3.10;2.10;;;26.60;54.00;;;;;;220202;1271;26511;-49
2022/06/19 23:39:04;;;;;;;3.70;2.60;;;26.60;53.30;;;;;;219962;1271;24241;-48
2022/06/19 23:44:11;;;;;;;5.90;2.80;;;26.60;53.70;;;;;;219861;1273;22567;-51
2022/06/19 23:49:14;;;;;;;3.90;2.40;;;26.60;53.70;;;;;;219980;1271;25276;-51
2022/06/19 23:54:16;;;;;;;4.30;2.50;;;26.60;53.70;;;;;;220285;1271;22574;-50
2022/06/19 23:59:19;;;;;;;4.20;2.30;;;26.60;53.80;;;;;;220068;1270;25388;-51
